createdAt,value
2019-01-06T00:01:48.581Z,100284.13
2019-01-06T00:04:47.744Z,100264.41
2019-01-06T00:07:35.477Z,100284.45
2019-01-06T00:10:23.838Z,100291.98
2019-01-06T00:13:17.499Z,100288.93
2019-01-06T00:16:10.651Z,100290.41
2019-01-06T00:19:07.200Z,100288.67
2019-01-06T00:21:53.080Z,100282.69
2019-01-06T00:24:49.141Z,100288.03
2019-01-06T00:27:35.002Z,100295.45
2019-01-06T00:30:26.253Z,100300.47
2019-01-06T00:33:17.240Z,100296.20
2019-01-06T00:36:09.247Z,100299.87
2019-01-06T00:39:05.811Z,100301.03
2019-01-06T00:42:08.012Z,100298.23
2019-01-06T00:44:56.152Z,100303.61
2019-01-06T00:47:44.336Z,100308.96
2019-01-06T00:50:30.265Z,100308.03
2019-01-06T00:53:18.071Z,100309.58
2019-01-06T00:56:04.182Z,100309.95
2019-01-06T00:59:09.928Z,100306.41
2019-01-06T01:01:56.098Z,100308.15
2019-01-06T01:04:46.923Z,100310.83
2019-01-06T01:07:29.931Z,100312.19
2019-01-06T01:10:15.014Z,100307.71
2019-01-06T01:13:00.846Z,100311.31
2019-01-06T01:15:47.086Z,100315.67
2019-01-06T01:18:32.730Z,100315.39
2019-01-06T01:21:26.447Z,100327.02
2019-01-06T01:24:13.827Z,100322.77
2019-01-06T01:27:04.490Z,100328.37
2019-01-06T01:29:50.495Z,100327.07
2019-01-06T01:32:50.207Z,100337.83
2019-01-06T01:35:45.684Z,100335.58
2019-01-06T01:38:27.678Z,100332.70
2019-01-06T01:41:13.506Z,100333.61
2019-01-06T01:44:10.074Z,100340.44
2019-01-06T01:46:55.562Z,100343.11
2019-01-06T01:49:49.070Z,100344.87
2019-01-06T01:52:36.559Z,100345.63
2019-01-06T01:55:39.433Z,100343.92
2019-01-06T01:58:29.363Z,100341.97
2019-01-06T02:01:15.667Z,100342.13
2019-01-06T02:04:03.170Z,100336.30
2019-01-06T02:07:01.765Z,100344.47
2019-01-06T02:09:47.828Z,100338.59
2019-01-06T02:12:42.206Z,100348.56
2019-01-06T02:15:32.467Z,100348.94
2019-01-06T02:18:18.916Z,100350.25
2019-01-06T02:21:21.500Z,100349.55
2019-01-06T02:24:15.255Z,100348.79
2019-01-06T02:27:01.304Z,100351.66
2019-01-06T02:29:47.822Z,100356.91
2019-01-06T02:32:33.993Z,100356.78
2019-01-06T02:35:24.023Z,100353.80
2019-01-06T02:38:09.858Z,100357.64
2019-01-06T02:41:00.437Z,100349.33
2019-01-06T02:43:57.962Z,100357.50
2019-01-06T02:46:44.725Z,100359.27
2019-01-06T02:49:46.346Z,100362.18
2019-01-06T02:52:32.614Z,100368.43
2019-01-06T02:55:29.136Z,100365.73
2019-01-06T02:58:18.138Z,100364.48
2019-01-06T03:00:58.892Z,100364.66
2019-01-06T03:03:48.614Z,100365.37
2019-01-06T03:06:51.367Z,100362.31
2019-01-06T03:09:58.465Z,100363.66
2019-01-06T03:12:51.043Z,100364.67
2019-01-06T03:15:41.873Z,100356.59
2019-01-06T03:18:27.700Z,100353.83
2019-01-06T03:21:13.829Z,100360.09
2019-01-06T03:24:04.040Z,100357.03
2019-01-06T03:26:57.520Z,100364.39
2019-01-06T03:29:44.664Z,100361.00
2019-01-06T03:32:47.263Z,100360.02
2019-01-06T03:35:28.838Z,100359.53
2019-01-06T03:38:22.885Z,100361.38
2019-01-06T03:41:09.615Z,100321.53
2019-01-06T03:43:58.923Z,100363.02
2019-01-06T03:46:46.520Z,100364.48
2019-01-06T03:49:30.616Z,100363.70
2019-01-06T03:52:30.228Z,100370.89
2019-01-06T03:55:16.568Z,100368.94
2019-01-06T03:58:22.073Z,100379.88
2019-01-06T04:01:15.702Z,100377.47
2019-01-06T04:03:56.845Z,100368.00
2019-01-06T04:06:41.573Z,100374.48
2019-01-06T04:09:28.862Z,100378.41
2019-01-06T04:12:16.368Z,100389.52
2019-01-06T04:14:59.661Z,100389.52
2019-01-06T04:18:04.707Z,100386.59
2019-01-06T04:20:50.294Z,100390.71
2019-01-06T04:23:40.968Z,100389.28
2019-01-06T04:26:32.176Z,100395.31
2019-01-06T04:29:23.110Z,100395.94
2019-01-06T04:32:23.579Z,100325.58
2019-01-06T04:35:09.775Z,100392.02
2019-01-06T04:37:55.970Z,100390.58
2019-01-06T04:40:41.670Z,100393.36
2019-01-06T04:43:25.073Z,100388.05
2019-01-06T04:46:18.752Z,100398.80
2019-01-06T04:49:12.726Z,100399.87
2019-01-06T04:52:06.158Z,100399.87
2019-01-06T04:55:12.181Z,100410.64
2019-01-06T04:58:11.865Z,100409.05
2019-01-06T05:00:59.266Z,100408.23
2019-01-06T05:03:52.789Z,100408.23
2019-01-06T05:06:52.604Z,100403.85
2019-01-06T05:09:38.807Z,100411.00
2019-01-06T05:12:20.644Z,100342.39
2019-01-06T05:15:06.992Z,100421.94
2019-01-06T05:17:54.775Z,100422.94
2019-01-06T05:20:45.024Z,100422.94
2019-01-06T05:23:32.755Z,100422.12
2019-01-06T05:26:23.072Z,100425.36
2019-01-06T05:29:09.361Z,100419.70
2019-01-06T05:31:55.136Z,100419.70
2019-01-06T05:34:48.891Z,100423.64
2019-01-06T05:37:36.692Z,100419.27
2019-01-06T05:40:33.839Z,100419.27
2019-01-06T05:43:34.689Z,100427.89
2019-01-06T05:46:39.553Z,100422.18
2019-01-06T05:49:25.220Z,100422.18
2019-01-06T05:52:13.397Z,100357.92
2019-01-06T05:55:10.058Z,100441.73
2019-01-06T05:57:56.319Z,100455.30
2019-01-06T06:00:42.619Z,100455.30
2019-01-06T06:03:29.724Z,100463.09
2019-01-06T06:06:19.904Z,100462.31
2019-01-06T06:09:25.339Z,100468.50
2019-01-06T06:12:25.695Z,100476.31
2019-01-06T06:15:13.314Z,100476.31
2019-01-06T06:18:09.368Z,100470.80
2019-01-06T06:21:08.041Z,100470.80
2019-01-06T06:24:01.908Z,100470.80
2019-01-06T06:26:49.628Z,100474.54
2019-01-06T06:29:43.163Z,100474.54
2019-01-06T06:32:46.012Z,100481.08
2019-01-06T06:35:31.848Z,100481.08
2019-01-06T06:38:31.464Z,100487.80
2019-01-06T06:41:18.760Z,100485.84
2019-01-06T06:44:00.065Z,100500.52
2019-01-06T06:46:59.534Z,100500.52
2019-01-06T06:49:49.654Z,100503.94
2019-01-06T06:52:40.038Z,100510.64
2019-01-06T06:55:26.615Z,100510.64
2019-01-06T06:58:28.368Z,100508.70
2019-01-06T07:02:01.655Z,100510.66
2019-01-06T07:04:54.868Z,100510.66
2019-01-06T07:07:41.798Z,100518.80
2019-01-06T07:10:27.709Z,100525.66
2019-01-06T07:13:15.628Z,100530.39
2019-01-06T07:16:06.444Z,100533.31
2019-01-06T07:18:54.288Z,100537.73
2019-01-06T07:21:39.888Z,100537.55
2019-01-06T07:24:26.005Z,100536.44
2019-01-06T07:27:12.273Z,100558.61
2019-01-06T07:29:58.455Z,100558.61
2019-01-06T07:32:48.779Z,100553.39
2019-01-06T07:35:39.295Z,100461.98
2019-01-06T07:38:32.745Z,100493.73
2019-01-06T07:41:19.732Z,100568.38
2019-01-06T07:44:08.215Z,100568.38
2019-01-06T07:46:54.480Z,100570.83
2019-01-06T07:49:51.643Z,100560.89
2019-01-06T07:52:39.309Z,100571.80
2019-01-06T07:55:28.021Z,100575.70
2019-01-06T07:58:22.765Z,100527.32
2019-01-06T08:01:18.859Z,100598.22
2019-01-06T08:04:05.080Z,100599.85
2019-01-06T08:06:55.479Z,100603.09
2019-01-06T08:09:48.631Z,100540.34
2019-01-06T08:12:42.704Z,100540.34
2019-01-06T08:15:33.427Z,100600.66
2019-01-06T08:18:30.398Z,100598.38
2019-01-06T08:21:26.476Z,100608.48
2019-01-06T08:24:17.402Z,100611.75
2019-01-06T08:27:03.644Z,100614.86
2019-01-06T08:29:45.219Z,100614.86
2019-01-06T08:32:38.946Z,100619.23
2019-01-06T08:35:26.430Z,100619.23
2019-01-06T08:38:23.114Z,100635.41
2019-01-06T08:41:10.530Z,100636.37
2019-01-06T08:44:16.941Z,100636.37
2019-01-06T08:47:07.322Z,100630.00
2019-01-06T08:49:56.199Z,100630.98
2019-01-06T08:52:43.541Z,100630.98
2019-01-06T08:55:49.321Z,100643.86
2019-01-06T08:58:46.206Z,100643.86
2019-01-06T09:01:32.679Z,100637.48
2019-01-06T09:04:19.359Z,100636.19
2019-01-06T09:07:13.181Z,100637.47
2019-01-06T09:10:01.303Z,100631.90
2019-01-06T09:13:01.465Z,100633.70
2019-01-06T09:15:47.443Z,100628.95
2019-01-06T09:18:44.484Z,100628.76
2019-01-06T09:21:41.945Z,100630.88
2019-01-06T09:24:27.357Z,100631.83
2019-01-06T09:27:26.988Z,100633.12
2019-01-06T09:30:17.750Z,100558.73
2019-01-06T09:33:11.301Z,100618.03
2019-01-06T09:36:16.006Z,100630.53
2019-01-06T09:39:06.598Z,100631.02
2019-01-06T09:41:48.208Z,100638.02
2019-01-06T09:44:38.886Z,100647.30
2019-01-06T09:47:26.765Z,100642.86
2019-01-06T09:50:29.201Z,100638.08
2019-01-06T09:53:35.174Z,100647.11
2019-01-06T09:56:24.223Z,100639.26
2019-01-06T09:59:15.455Z,100640.59
2019-01-06T10:02:03.682Z,100644.91
2019-01-06T10:04:57.410Z,100643.94
2019-01-06T10:07:43.647Z,100646.91
2019-01-06T10:10:34.571Z,100640.26
2019-01-06T10:13:32.349Z,100639.91
2019-01-06T10:16:35.425Z,100641.52
2019-01-06T10:19:25.646Z,100646.58
2019-01-06T10:22:13.128Z,100643.17
2019-01-06T10:25:03.859Z,100646.93
2019-01-06T10:27:49.882Z,100642.05
2019-01-06T10:30:36.555Z,100648.62
2019-01-06T10:33:27.198Z,100641.19
2019-01-06T10:36:15.911Z,100634.33
2019-01-06T10:39:06.001Z,100637.06
2019-01-06T10:42:12.295Z,100639.84
2019-01-06T10:44:58.389Z,100636.66
2019-01-06T10:47:46.226Z,100633.67
2019-01-06T10:50:49.580Z,100633.14
2019-01-06T10:53:51.697Z,100631.64
2019-01-06T10:56:41.572Z,100642.14
2019-01-06T10:59:30.062Z,100600.13
2019-01-06T11:02:23.912Z,100646.71
2019-01-06T11:05:13.233Z,100646.41
2019-01-06T11:08:00.513Z,100643.08
2019-01-06T11:11:07.942Z,100646.89
2019-01-06T11:14:05.085Z,100645.57
2019-01-06T11:16:55.442Z,100645.57
2019-01-06T11:19:45.093Z,100648.33
2019-01-06T11:22:39.432Z,100652.45
2019-01-06T11:25:28.257Z,100653.42
2019-01-06T11:28:16.072Z,100646.56
2019-01-06T11:31:05.624Z,100645.27
2019-01-06T11:33:59.378Z,100649.66
2019-01-06T11:36:47.887Z,100651.45
2019-01-06T11:39:45.927Z,100650.98
2019-01-06T11:42:32.030Z,100639.54
2019-01-06T11:45:25.700Z,100636.92
2019-01-06T11:48:14.881Z,100636.73
2019-01-06T11:51:24.988Z,100632.48
2019-01-06T11:54:15.256Z,100630.86
2019-01-06T11:57:06.167Z,100631.79
2019-01-06T11:59:57.692Z,100629.47
2019-01-06T12:02:45.975Z,100629.17
2019-01-06T12:05:33.834Z,100622.16
2019-01-06T12:08:41.162Z,100627.48
2019-01-06T12:11:36.051Z,100625.50
2019-01-06T12:14:26.688Z,100624.03
2019-01-06T12:17:19.477Z,100623.83
2019-01-06T12:20:06.987Z,100617.49
2019-01-06T12:22:57.331Z,100617.16
2019-01-06T12:25:46.644Z,100612.85
2019-01-06T12:28:37.389Z,100613.47
2019-01-06T12:31:41.937Z,100617.36
2019-01-06T12:34:29.328Z,100619.77
2019-01-06T12:37:27.090Z,100619.11
2019-01-06T12:40:23.371Z,100618.17
2019-01-06T12:43:14.730Z,100617.22
2019-01-06T12:46:01.866Z,100610.86
2019-01-06T12:48:54.192Z,100612.98
2019-01-06T12:51:48.507Z,100542.50
2019-01-06T12:54:37.888Z,100608.44
2019-01-06T12:57:27.209Z,100551.83
2019-01-06T13:00:19.003Z,100615.04
2019-01-06T13:03:16.113Z,100623.95
2019-01-06T13:06:17.691Z,100620.05
2019-01-06T13:09:06.158Z,100619.89
2019-01-06T13:11:59.040Z,100626.61
2019-01-06T13:14:46.254Z,100620.07
2019-01-06T13:17:47.066Z,100613.24
2019-01-06T13:20:43.380Z,100620.41
2019-01-06T13:23:44.093Z,100619.59
2019-01-06T13:26:29.904Z,100620.89
2019-01-06T13:29:39.039Z,100619.59
2019-01-06T13:32:25.640Z,100624.63
2019-01-06T13:35:14.872Z,100622.01
2019-01-06T13:38:04.407Z,100551.44
2019-01-06T13:40:58.479Z,100635.05
2019-01-06T13:43:44.906Z,100635.38
2019-01-06T13:46:31.688Z,100635.70
2019-01-06T13:49:29.147Z,100636.17
2019-01-06T13:52:36.465Z,100635.81
2019-01-06T13:55:23.464Z,100633.99
2019-01-06T13:58:17.028Z,100635.62
2019-01-06T14:01:04.814Z,100568.84
2019-01-06T14:03:54.010Z,100636.91
2019-01-06T14:06:46.513Z,100643.83
2019-01-06T14:09:34.561Z,100643.73
2019-01-06T14:12:23.148Z,100635.89
2019-01-06T14:15:13.041Z,100640.95
2019-01-06T14:18:08.415Z,100639.81
2019-01-06T14:21:04.136Z,100645.06
2019-01-06T14:23:52.999Z,100646.86
2019-01-06T14:26:47.578Z,100648.83
2019-01-06T14:29:34.417Z,100649.63
2019-01-06T14:32:22.517Z,100646.86
2019-01-06T14:35:18.281Z,100648.97
2019-01-06T14:38:12.025Z,100651.58
2019-01-06T14:41:03.874Z,100655.64
2019-01-06T14:44:05.685Z,100583.24
2019-01-06T14:46:52.785Z,100658.55
2019-01-06T14:49:43.708Z,100657.25
2019-01-06T14:52:30.416Z,100657.11
2019-01-06T14:55:16.591Z,100662.16
2019-01-06T14:58:09.826Z,100668.34
2019-01-06T15:01:06.905Z,100667.19
2019-01-06T15:04:12.426Z,100666.70
2019-01-06T15:07:06.574Z,100669.64
2019-01-06T15:10:03.028Z,100669.64
2019-01-06T15:12:54.902Z,100670.48
2019-01-06T15:15:57.547Z,100671.44
2019-01-06T15:18:44.532Z,100670.13
2019-01-06T15:21:33.772Z,100596.77
2019-01-06T15:24:19.687Z,100676.97
2019-01-06T15:27:05.711Z,100674.84
2019-01-06T15:29:51.823Z,100669.61
2019-01-06T15:32:36.321Z,100671.09
2019-01-06T15:35:27.909Z,100673.84
2019-01-06T15:38:16.695Z,100668.47
2019-01-06T15:41:03.109Z,100675.17
2019-01-06T15:43:48.982Z,100676.80
2019-01-06T15:46:48.004Z,100672.45
2019-01-06T15:49:34.412Z,100669.69
2019-01-06T15:52:21.613Z,100663.82
2019-01-06T15:55:07.688Z,100666.44
2019-01-06T15:58:10.613Z,100666.91
2019-01-06T16:01:03.290Z,100673.91
2019-01-06T16:03:52.167Z,100671.46
2019-01-06T16:06:57.529Z,100677.53
2019-01-06T16:09:49.790Z,100679.02
2019-01-06T16:12:49.675Z,100688.98
2019-01-06T16:15:42.589Z,100679.65
2019-01-06T16:18:39.469Z,100685.20
2019-01-06T16:21:28.129Z,100690.44
2019-01-06T16:24:18.008Z,100686.33
2019-01-06T16:27:17.369Z,100693.66
2019-01-06T16:30:05.994Z,100691.51
2019-01-06T16:32:52.122Z,100698.70
2019-01-06T16:35:40.595Z,100701.45
2019-01-06T16:38:28.741Z,100697.73
2019-01-06T16:41:17.719Z,100699.68
2019-01-06T16:44:16.231Z,100640.98
2019-01-06T16:47:13.249Z,100583.29
2019-01-06T16:50:19.282Z,100696.91
2019-01-06T16:53:06.884Z,100693.42
2019-01-06T16:56:11.561Z,100689.50
2019-01-06T16:58:55.936Z,100691.00
2019-01-06T17:01:42.197Z,100694.41
2019-01-06T17:04:29.656Z,100692.73
2019-01-06T17:07:17.561Z,100690.12
2019-01-06T17:10:12.952Z,100698.14
2019-01-06T17:13:04.152Z,100692.74
2019-01-06T17:15:52.919Z,100691.77
2019-01-06T17:18:57.789Z,100695.03
2019-01-06T17:21:50.981Z,100697.32
2019-01-06T17:24:39.236Z,100705.81
2019-01-06T17:27:31.190Z,100711.89
2019-01-06T17:30:28.715Z,100705.68
2019-01-06T17:33:14.987Z,100701.59
2019-01-06T17:36:04.373Z,100698.48
2019-01-06T17:39:03.003Z,100696.55
2019-01-06T17:41:49.333Z,100620.75
2019-01-06T17:44:36.478Z,100695.73
2019-01-06T17:47:25.039Z,100699.34
2019-01-06T17:50:13.062Z,100697.04
2019-01-06T17:53:08.398Z,100704.23
2019-01-06T17:55:55.493Z,100702.77
2019-01-06T18:02:22.729Z,100696.85
2019-01-06T18:05:13.551Z,100709.28
2019-01-06T18:08:09.019Z,100709.11
2019-01-06T18:10:55.571Z,100707.29
2019-01-06T18:13:42.604Z,100711.37
2019-01-06T18:16:36.586Z,100714.31
2019-01-06T18:19:23.675Z,100710.72
2019-01-06T18:22:11.551Z,100647.80
2019-01-06T18:25:03.337Z,100710.70
2019-01-06T18:27:51.620Z,100708.08
2019-01-06T18:30:54.594Z,100710.70
2019-01-06T18:33:42.665Z,100710.70
2019-01-06T18:36:34.607Z,100706.64
2019-01-06T18:39:24.384Z,100709.44
2019-01-06T18:42:21.777Z,100709.73
2019-01-06T18:45:13.158Z,100707.48
2019-01-06T18:48:16.122Z,100709.11
2019-01-06T18:51:07.449Z,100706.02
2019-01-06T18:54:01.571Z,100709.44
2019-01-06T18:57:01.810Z,100641.94
2019-01-06T18:59:59.826Z,100706.14
2019-01-06T19:02:47.384Z,100702.22
2019-01-06T19:05:54.972Z,100703.37
2019-01-06T19:09:10.257Z,100708.11
2019-01-06T19:12:06.767Z,100707.75
2019-01-06T19:14:54.484Z,100708.77
2019-01-06T19:17:43.141Z,100703.34
2019-01-06T19:20:32.528Z,100710.86
2019-01-06T19:23:23.076Z,100706.28
2019-01-06T19:26:18.505Z,100714.13
2019-01-06T19:29:06.532Z,100708.14
2019-01-06T19:31:58.668Z,100718.76
2019-01-06T19:34:53.032Z,100714.20
2019-01-06T19:37:36.735Z,100718.16
2019-01-06T19:40:27.786Z,100714.71
2019-01-06T19:43:28.147Z,100720.11
2019-01-06T19:46:28.575Z,100711.45
2019-01-06T19:49:19.288Z,100712.61
2019-01-06T19:52:22.541Z,100718.98
2019-01-06T19:55:18.898Z,100716.56
2019-01-06T19:58:09.153Z,100713.45
2019-01-06T20:01:06.091Z,100716.57
2019-01-06T20:04:05.562Z,100712.48
2019-01-06T20:06:52.447Z,100714.28
2019-01-06T20:09:42.649Z,100717.08
2019-01-06T20:12:44.783Z,100715.80
2019-01-06T20:15:41.154Z,100721.36
2019-01-06T20:18:27.655Z,100720.36
2019-01-06T20:21:13.437Z,100719.88
2019-01-06T20:24:13.189Z,100724.46
2019-01-06T20:26:55.471Z,100726.40
2019-01-06T20:29:43.171Z,100724.45
2019-01-06T20:32:42.929Z,100723.61
2019-01-06T20:35:39.354Z,100728.37
2019-01-06T20:38:35.710Z,100731.81
2019-01-06T20:41:30.549Z,100730.50
2019-01-06T20:44:18.031Z,100731.45
2019-01-06T20:47:04.156Z,100728.22
2019-01-06T20:50:09.487Z,100734.41
2019-01-06T20:53:00.112Z,100732.13
2019-01-06T20:55:54.317Z,100732.94
2019-01-06T20:58:42.230Z,100733.58
2019-01-06T21:01:28.403Z,100726.41
2019-01-06T21:04:21.750Z,100729.34
2019-01-06T21:07:10.211Z,100730.16
2019-01-06T21:10:02.625Z,100731.77
2019-01-06T21:12:54.778Z,100729.17
2019-01-06T21:15:45.643Z,100733.58
2019-01-06T21:18:32.333Z,100739.27
2019-01-06T21:21:20.253Z,100740.75
2019-01-06T21:24:04.738Z,100740.56
2019-01-06T21:26:58.850Z,100737.30
2019-01-06T21:29:44.926Z,100739.91
2019-01-06T21:32:33.660Z,100742.53
2019-01-06T21:35:21.083Z,100741.38
2019-01-06T21:38:23.911Z,100742.69
2019-01-06T21:41:11.469Z,100676.61
2019-01-06T21:43:53.419Z,100742.02
2019-01-06T21:46:48.175Z,100750.67
2019-01-06T21:49:34.261Z,100749.39
2019-01-06T21:52:20.407Z,100747.42
2019-01-06T21:55:09.625Z,100746.78
2019-01-06T21:57:47.395Z,100750.53
2019-01-06T22:00:43.956Z,100744.50
2019-01-06T22:03:29.813Z,100743.86
2019-01-06T22:06:31.970Z,100746.61
2019-01-06T22:09:28.334Z,100749.08
2019-01-06T22:12:33.723Z,100744.81
2019-01-06T22:15:28.475Z,100748.42
2019-01-06T22:18:19.069Z,100744.19
2019-01-06T22:21:04.851Z,100739.77
2019-01-06T22:23:52.387Z,100740.62
2019-01-06T22:26:28.934Z,100740.76
2019-01-06T22:29:09.042Z,100741.27
2019-01-06T22:32:00.343Z,100740.29
2019-01-06T22:34:56.955Z,100739.82
2019-01-06T22:37:47.620Z,100743.90
2019-01-06T22:40:38.837Z,100743.08
2019-01-06T22:43:25.991Z,100742.75
2019-01-06T22:46:11.756Z,100760.38
2019-01-06T22:49:02.483Z,100747.95
2019-01-06T22:51:48.006Z,100742.91
2019-01-06T22:54:37.686Z,100750.73
2019-01-06T22:57:36.907Z,100746.15
2019-01-06T23:00:28.518Z,100740.45
2019-01-06T23:03:14.286Z,100743.39
2019-01-06T23:06:07.941Z,100738.98
2019-01-06T23:08:53.857Z,100748.45
2019-01-06T23:11:45.015Z,100744.53
2019-01-06T23:14:24.885Z,100749.44
2019-01-06T23:17:15.224Z,100752.39
2019-01-06T23:20:08.730Z,100750.75
2019-01-06T23:22:55.188Z,100746.02
2019-01-06T23:25:33.291Z,100752.70
2019-01-06T23:28:19.336Z,100752.20
2019-01-06T23:31:06.798Z,100748.14
2019-01-06T23:33:52.886Z,100754.02
2019-01-06T23:36:43.498Z,100753.53
2019-01-06T23:39:34.201Z,100758.42
2019-01-06T23:42:27.719Z,100754.66
2019-01-06T23:45:26.713Z,100754.66
2019-01-06T23:48:25.785Z,100764.77
2019-01-06T23:51:26.967Z,100764.77
2019-01-06T23:54:19.199Z,100772.63
2019-01-06T23:57:19.064Z,100776.86
